Time;durP1;ratioP1;P1;durP2;ratioP2;P2;SDS_P1;SDS_P2;PMS_P1;PMS_P2;Temp;Humidity;BMP_temperature;BMP_pressure;BME280_temperature;BME280_humidity;BME280_pressure;Samples;Min_cycle;Max_cycle;Signal;HPM_P1;HPM_P2
2021/08/23 00:01:58;;;;;;;7.05;2.83;;;;;;;19.35;100.00;96688.84;5026245;28;20185;-46
2021/08/23 00:04:28;;;;;;;5.22;2.83;;;;;;;19.31;100.00;96694.78;5023206;28;20065;-50
2021/08/23 00:06:56;;;;;;;7.57;2.80;;;;;;;19.47;100.00;96686.44;5021997;28;20076;-49
2021/08/23 00:09:25;;;;;;;6.97;2.90;;;;;;;19.11;100.00;96689.25;5025272;28;21020;-48
2021/08/23 00:11:53;;;;;;;5.38;3.17;;;;;;;19.06;100.00;96688.97;5023271;28;20085;-48
2021/08/23 00:14:21;;;;;;;5.05;2.88;;;;;;;19.45;100.00;96688.50;5023770;28;20456;-53
2021/08/23 00:16:50;;;;;;;4.63;3.10;;;;;;;19.22;100.00;96691.41;5024770;28;20455;-51
2021/08/23 00:19:18;;;;;;;4.55;3.25;;;;;;;19.18;100.00;96696.31;5022532;28;20321;-51
2021/08/23 00:21:50;;;;;;;5.60;3.15;;;;;;;18.72;100.00;96694.03;5023908;28;20080;-51
2021/08/23 00:24:22;;;;;;;3.70;3.08;;;;;;;18.89;100.00;96686.59;5017739;28;20069;-55
2021/08/23 00:26:50;;;;;;;7.30;3.35;;;;;;;19.29;100.00;96689.59;5025474;28;20069;-49
2021/08/23 00:29:19;;;;;;;4.25;3.22;;;;;;;19.11;100.00;96691.94;5021379;28;20081;-53
2021/08/23 00:31:48;;;;;;;6.07;3.75;;;;;;;19.17;100.00;96691.16;5021693;28;20167;-45
2021/08/23 00:34:16;;;;;;;8.75;3.63;;;;;;;18.97;100.00;96685.63;5024706;28;20088;-48
2021/08/23 00:36:45;;;;;;;4.40;3.33;;;;;;;19.00;100.00;96679.09;5023718;28;20069;-46
2021/08/23 00:39:15;;;;;;;6.70;3.40;;;;;;;18.93;100.00;96682.53;5019475;28;21604;-49
2021/08/23 00:41:43;;;;;;;6.13;3.50;;;;;;;19.23;100.00;96673.50;5026511;28;20080;-55
2021/08/23 00:44:12;;;;;;;6.50;3.80;;;;;;;19.32;100.00;96670.50;5024661;28;20076;-46
2021/08/23 00:46:42;;;;;;;8.32;3.85;;;;;;;18.86;100.00;96670.13;5022215;28;20077;-50
2021/08/23 00:49:11;;;;;;;5.70;3.33;;;;;;;18.98;100.00;96671.25;5022935;28;20088;-49
2021/08/23 00:51:39;;;;;;;6.47;3.78;;;;;;;18.64;100.00;96679.94;5023768;28;20073;-47
2021/08/23 00:54:08;;;;;;;5.88;4.03;;;;;;;19.21;100.00;96677.19;5021786;28;20072;-52
2021/08/23 00:56:38;;;;;;;6.45;3.47;;;;;;;18.92;100.00;96675.50;5022172;28;20077;-47
2021/08/23 00:59:08;;;;;;;5.45;3.72;;;;;;;18.91;100.00;96678.38;5024921;28;20085;-51
2021/08/23 01:01:45;;;;;;;8.52;4.05;;;;;;;18.73;100.00;96676.97;5024098;28;20072;-48
2021/08/23 01:04:17;;;;;;;6.28;3.72;;;;;;;18.06;100.00;96685.22;5021555;28;20448;-48
2021/08/23 01:06:46;;;;;;;6.72;3.60;;;;;;;18.95;100.00;96684.97;5021312;28;20080;-50
2021/08/23 01:09:15;;;;;;;7.07;3.78;;;;;;;18.52;100.00;96686.78;5022498;28;20474;-49
2021/08/23 01:11:52;;;;;;;5.22;3.53;;;;;;;18.27;100.00;96690.63;5022236;28;20555;-51
2021/08/23 01:14:20;;;;;;;5.65;3.90;;;;;;;18.61;100.00;96675.78;5027707;28;20081;-55
2021/08/23 01:16:49;;;;;;;6.00;4.13;;;;;;;18.97;100.00;96680.28;5021471;28;20076;-55
2021/08/23 01:19:19;;;;;;;5.97;3.78;;;;;;;18.53;100.00;96683.94;5024071;28;20069;-51
2021/08/23 01:21:50;;;;;;;6.05;4.22;;;;;;;18.79;100.00;96679.88;5022600;28;20471;-51
2021/08/23 01:24:18;;;;;;;6.18;4.13;;;;;;;18.71;100.00;96689.69;5022954;28;20100;-46
2021/08/23 01:26:50;;;;;;;5.75;3.95;;;;;;;18.52;100.00;96686.78;5020071;28;20085;-49
2021/08/23 01:29:26;;;;;;;9.90;3.85;;;;;;;18.77;100.00;96689.97;5025539;28;20475;-52
2021/08/23 01:32:08;;;;;;;5.50;3.95;;;;;;;18.64;100.00;96687.94;5021711;28;20206;-48
2021/08/23 01:34:36;;;;;;;10.20;3.70;;;;;;;18.42;100.00;96685.25;5020903;28;20069;-51
2021/08/23 01:37:05;;;;;;;6.65;3.88;;;;;;;18.76;100.00;96675.78;5011524;28;20065;-47
2021/08/23 01:39:33;;;;;;;5.15;3.75;;;;;;;18.74;100.00;96677.81;5005510;28;20074;-48
2021/08/23 01:42:02;;;;;;;6.35;3.88;;;;;;;18.49;100.00;96683.47;5005463;28;20073;-48
2021/08/23 01:44:30;;;;;;;7.80;3.90;;;;;;;18.57;100.00;96685.19;5028412;28;20093;-46
2021/08/23 01:46:58;;;;;;;7.30;4.07;;;;;;;18.25;100.00;96681.97;5003057;28;20082;-46
2021/08/23 01:49:28;;;;;;;5.75;3.90;;;;;;;18.61;100.00;96678.44;5018914;28;20065;-53
2021/08/23 01:51:57;;;;;;;5.93;4.10;;;;;;;18.60;100.00;96684.00;5018355;28;20085;-52
2021/08/23 01:54:25;;;;;;;8.50;4.25;;;;;;;18.25;100.00;96681.16;5023786;28;20068;-55
2021/08/23 01:56:53;;;;;;;7.90;4.15;;;;;;;18.34;100.00;96680.03;5023767;28;20129;-54
2021/08/23 01:59:21;;;;;;;5.15;3.65;;;;;;;18.53;100.00;96689.25;5025458;28;20089;-52
2021/08/23 02:01:50;;;;;;;6.40;4.28;;;;;;;18.23;100.00;96694.66;5022018;28;20527;-48
2021/08/23 02:04:18;;;;;;;4.60;4.10;;;;;;;18.31;100.00;96692.94;5023154;28;20425;-48
2021/08/23 02:06:48;;;;;;;6.00;4.28;;;;;;;18.46;100.00;96688.38;5011538;28;20065;-47
2021/08/23 02:09:17;;;;;;;7.30;4.13;;;;;;;18.44;100.00;96695.72;5012529;28;20080;-53
2021/08/23 02:11:45;;;;;;;6.75;4.22;;;;;;;18.11;100.00;96698.84;5021185;28;20088;-51
2021/08/23 02:14:13;;;;;;;7.35;4.35;;;;;;;18.21;100.00;96703.91;5004924;28;20476;-53
2021/08/23 02:16:42;;;;;;;6.93;4.50;;;;;;;18.30;100.00;96700.09;5023465;28;20172;-49
2021/08/23 02:19:10;;;;;;;5.28;4.35;;;;;;;18.33;100.00;96699.72;5024470;28;20097;-49
2021/08/23 02:21:47;;;;;;;8.57;4.53;;;;;;;18.71;100.00;96684.34;5026407;28;20064;-49
2021/08/23 02:24:16;;;;;;;7.65;4.20;;;;;;;18.95;100.00;96691.16;5025080;28;20571;-50
2021/08/23 02:26:44;;;;;;;7.60;4.07;;;;;;;18.72;100.00;96691.38;5024315;28;20077;-48
2021/08/23 02:29:13;;;;;;;6.68;4.70;;;;;;;18.56;100.00;96699.56;5026586;28;20538;-50
2021/08/23 02:31:41;;;;;;;6.03;4.47;;;;;;;19.14;100.00;96691.53;5025683;28;20061;-52
2021/08/23 02:34:10;;;;;;;7.60;4.10;;;;;;;18.61;100.00;96688.31;5024834;28;20128;-49
2021/08/23 02:36:38;;;;;;;12.55;4.70;;;;;;;18.61;100.00;96690.97;5024626;28;20140;-49
2021/08/23 02:39:08;;;;;;;5.82;3.97;;;;;;;18.74;100.00;96693.81;5023175;28;20511;-50
2021/08/23 02:41:36;;;;;;;6.80;3.90;;;;;;;19.14;100.00;96695.03;5027077;28;20084;-50
2021/08/23 02:44:05;;;;;;;8.95;4.30;;;;;;;19.00;100.00;96687.09;5025208;28;20522;-46
2021/08/23 02:46:33;;;;;;;5.82;4.38;;;;;;;18.98;100.00;96688.09;5024769;28;20068;-48
2021/08/23 02:49:02;;;;;;;6.63;3.80;;;;;;;18.88;100.00;96684.91;5008865;28;20081;-45
2021/08/23 02:51:30;;;;;;;7.18;4.45;;;;;;;18.97;100.00;96688.31;5012764;28;20277;-49
2021/08/23 02:53:58;;;;;;;6.95;3.97;;;;;;;19.24;100.00;96693.91;5020680;28;20077;-51
2021/08/23 02:56:28;;;;;;;9.68;4.07;;;;;;;18.65;100.00;96690.44;5025713;28;20085;-44
2021/08/23 02:58:56;;;;;;;7.93;4.13;;;;;;;18.78;100.00;96694.28;5025598;28;20072;-51
2021/08/23 03:01:25;;;;;;;5.50;3.80;;;;;;;19.47;100.00;96686.44;5004689;28;20062;-52
2021/08/23 03:03:53;;;;;;;4.78;3.88;;;;;;;19.25;100.00;96692.88;5012802;28;20085;-61
2021/08/23 03:06:21;;;;;;;6.53;3.60;;;;;;;18.98;100.00;96684.59;5015764;28;20590;-51
2021/08/23 03:08:50;;;;;;;6.18;3.65;;;;;;;18.86;100.00;96683.47;4998000;28;20069;-47
2021/08/23 03:11:18;;;;;;;6.43;4.00;;;;;;;18.81;100.00;96692.06;5001769;28;20081;-53
2021/08/23 03:13:48;;;;;;;8.90;4.22;;;;;;;18.69;100.00;96689.03;5025720;28;20454;-46
2021/08/23 03:16:16;;;;;;;5.70;4.07;;;;;;;18.68;100.00;96686.53;5024132;28;20081;-49
2021/08/23 03:18:45;;;;;;;7.38;4.05;;;;;;;18.92;100.00;96685.38;5023911;28;20465;-51
2021/08/23 03:21:13;;;;;;;8.45;3.80;;;;;;;18.86;100.00;96695.00;5024380;28;20068;-50
2021/08/23 03:23:41;;;;;;;7.47;3.78;;;;;;;19.02;100.00;96687.72;5025948;28;20077;-56
2021/08/23 03:26:10;;;;;;;7.47;4.07;;;;;;;19.64;100.00;96677.13;5025280;28;20084;-50
2021/08/23 03:28:38;;;;;;;4.88;3.97;;;;;;;19.76;100.00;96692.66;5022053;28;20061;-46
2021/08/23 03:31:08;;;;;;;6.55;3.67;;;;;;;19.52;100.00;96684.00;5023467;28;20065;-48
2021/08/23 03:33:39;;;;;;;5.47;3.65;;;;;;;19.68;100.00;96693.59;5014141;28;20092;-59
2021/08/23 03:36:07;;;;;;;12.82;3.90;;;;;;;19.86;100.00;96690.44;5003409;28;20072;-47
2021/08/23 03:38:36;;;;;;;8.65;3.95;;;;;;;20.16;100.00;96690.97;5025130;28;20080;-51
2021/08/23 03:41:04;;;;;;;5.57;4.07;;;;;;;19.47;100.00;96691.78;5026522;28;20081;-46
2021/08/23 03:43:32;;;;;;;6.35;3.85;;;;;;;20.05;100.00;96689.69;5023732;28;20072;-45
2021/08/23 03:46:01;;;;;;;4.88;3.58;;;;;;;20.33;100.00;96692.28;5007045;28;20136;-48
2021/08/23 03:48:31;;;;;;;6.15;3.60;;;;;;;19.62;100.00;96683.69;5011942;28;20500;-53
2021/08/23 03:50:59;;;;;;;6.47;3.72;;;;;;;19.76;100.00;96679.28;5023183;28;20068;-46
2021/08/23 03:53:27;;;;;;;4.97;3.58;;;;;;;19.54;100.00;96681.13;5024981;28;20520;-51
2021/08/23 03:55:56;;;;;;;5.93;3.75;;;;;;;19.53;100.00;96680.31;5023450;28;20523;-54
2021/08/23 03:58:24;;;;;;;6.43;3.90;;;;;;;19.30;100.00;96685.06;5025187;28;20061;-51
2021/08/23 04:00:52;;;;;;;6.60;3.85;;;;;;;19.16;100.00;96684.97;5021662;28;20080;-52
2021/08/23 04:03:21;;;;;;;6.88;3.80;;;;;;;19.63;100.00;96690.72;5022808;28;20494;-50
2021/08/23 04:05:50;;;;;;;5.35;3.80;;;;;;;19.91;100.00;96679.97;5024081;28;20079;-47
2021/08/23 04:08:19;;;;;;;8.60;4.25;;;;;;;19.77;100.00;96678.22;5025838;28;20108;-47
2021/08/23 04:10:48;;;;;;;8.40;4.10;;;;;;;19.34;100.00;96687.19;5025180;28;20077;-47
2021/08/23 04:13:16;;;;;;;6.95;4.03;;;;;;;19.42;100.00;96675.50;5019416;28;20077;-51
2021/08/23 04:15:48;;;;;;;6.43;3.80;;;;;;;19.30;100.00;96682.41;5024158;28;20084;-52
2021/08/23 04:18:16;;;;;;;6.47;3.85;;;;;;;19.50;100.00;96685.22;5022901;28;20085;-48
2021/08/23 04:20:45;;;;;;;7.93;3.55;;;;;;;19.32;100.00;96678.53;5021509;28;20490;-50
2021/08/23 04:23:14;;;;;;;8.88;3.70;;;;;;;19.34;100.00;96675.63;5018269;28;20112;-49
2021/08/23 04:25:43;;;;;;;5.40;3.90;;;;;;;19.32;100.00;96683.03;5023911;28;20096;-48
2021/08/23 04:28:11;;;;;;;5.50;3.47;;;;;;;19.27;100.00;96677.44;5020976;28;20501;-53
2021/08/23 04:30:40;;;;;;;8.25;3.58;;;;;;;19.34;100.00;96684.50;5024471;28;20432;-47
2021/08/23 04:33:08;;;;;;;7.65;3.63;;;;;;;19.84;100.00;96679.09;5021940;28;20085;-50
2021/08/23 04:35:37;;;;;;;5.22;3.60;;;;;;;19.13;100.00;96682.69;5023404;28;20081;-50
2021/08/23 04:38:05;;;;;;;6.22;3.42;;;;;;;18.77;100.00;96685.44;5023228;28;20084;-46
2021/08/23 04:40:35;;;;;;;7.97;3.92;;;;;;;19.02;100.00;96687.72;5022546;28;20088;-55
2021/08/23 04:43:03;;;;;;;6.60;3.60;;;;;;;19.66;100.00;96688.47;5006355;28;20076;-48
2021/08/23 04:45:31;;;;;;;5.63;3.70;;;;;;;19.56;100.00;96689.81;5009057;28;20107;-46
2021/08/23 04:48:00;;;;;;;6.95;3.45;;;;;;;19.23;100.00;96689.53;5022648;28;20085;-48
2021/08/23 04:50:28;;;;;;;5.97;3.72;;;;;;;19.72;100.00;96686.88;5019616;28;20550;-45
2021/08/23 04:52:56;;;;;;;5.70;3.70;;;;;;;19.37;100.00;96686.81;5024629;28;20080;-50
2021/08/23 04:55:25;;;;;;;9.45;4.13;;;;;;;19.27;100.00;96696.16;5022277;28;20083;-53
2021/08/23 04:57:55;;;;;;;5.05;3.42;;;;;;;18.92;100.00;96685.38;5024824;28;20084;-53
2021/08/23 05:00:23;;;;;;;6.18;3.60;;;;;;;19.01;100.00;96694.09;5021462;28;20069;-55
2021/08/23 05:02:52;;;;;;;6.25;3.58;;;;;;;18.69;100.00;96691.72;5017785;28;20084;-49
2021/08/23 05:05:20;;;;;;;7.32;3.63;;;;;;;19.38;100.00;96679.59;4992918;28;20551;-53
2021/08/23 05:07:49;;;;;;;5.50;3.40;;;;;;;19.06;100.00;96678.28;5023430;28;20065;-50
2021/08/23 05:10:18;;;;;;;5.72;3.30;;;;;;;19.35;100.00;96680.81;5020027;28;20084;-53
2021/08/23 05:12:47;;;;;;;5.65;3.45;;;;;;;19.09;100.00;96692.09;5023285;28;20477;-47
2021/08/23 05:15:16;;;;;;;6.03;3.47;;;;;;;19.31;100.00;96692.91;5021468;28;20061;-50
2021/08/23 05:17:45;;;;;;;3.88;3.03;;;;;;;19.28;100.00;96684.47;5022240;28;20103;-47
2021/08/23 05:20:13;;;;;;;5.65;3.60;;;;;;;19.31;100.00;96690.25;5031219;28;20077;-46
2021/08/23 05:22:41;;;;;;;3.40;3.00;;;;;;;18.95;100.00;96685.81;5020304;28;20072;-50
2021/08/23 05:25:11;;;;;;;5.93;3.20;;;;;;;19.29;100.00;96686.09;5021763;28;20069;-49
2021/08/23 05:27:39;;;;;;;6.10;3.10;;;;;;;18.32;100.00;96694.56;5021964;28;20072;-55
2021/08/23 05:30:09;;;;;;;8.68;2.83;;;;;;;19.02;100.00;96688.53;5020713;28;20546;-50
2021/08/23 05:32:39;;;;;;;4.90;3.53;;;;;;;19.17;100.00;96691.97;5023577;28;20084;-49
2021/08/23 05:35:08;;;;;;;7.53;3.33;;;;;;;18.93;100.00;96693.22;5023370;28;20531;-54
2021/08/23 05:37:37;;;;;;;4.85;3.20;;;;;;;19.07;100.00;96701.34;5020492;28;20417;-56
2021/08/23 05:40:06;;;;;;;4.75;3.08;;;;;;;19.13;100.00;96700.56;5020930;28;20069;-51
2021/08/23 05:42:34;;;;;;;4.80;3.27;;;;;;;19.43;100.00;96703.91;5026573;28;20156;-50
2021/08/23 05:45:03;;;;;;;4.55;2.90;;;;;;;19.34;100.00;96699.69;5024027;28;20065;-55
2021/08/23 05:47:32;;;;;;;7.25;3.45;;;;;;;19.31;100.00;96706.28;5024872;28;20487;-53
2021/08/23 05:50:02;;;;;;;6.65;3.20;;;;;;;19.16;100.00;96702.84;5028394;28;20657;-57
2021/08/23 05:52:30;;;;;;;6.47;3.28;;;;;;;19.42;100.00;96705.75;5026141;28;20706;-56
2021/08/23 05:54:58;;;;;;;11.10;3.55;;;;;;;19.42;100.00;96707.59;5025191;28;20073;-56
2021/08/23 05:57:27;;;;;;;5.00;3.33;;;;;;;19.16;100.00;96705.53;5022936;28;21688;-54
2021/08/23 05:59:56;;;;;;;4.22;3.10;;;;;;;19.55;100.00;96701.53;5027701;28;20077;-49
2021/08/23 06:02:24;;;;;;;4.82;3.60;;;;;;;19.25;100.00;96690.19;5025607;28;20088;-47
2021/08/23 06:04:53;;;;;;;3.88;3.25;;;;;;;19.07;100.00;96701.34;5023939;28;20338;-54
2021/08/23 06:07:23;;;;;;;7.05;3.40;;;;;;;19.88;100.00;96693.72;5024805;28;20068;-56
2021/08/23 06:09:51;;;;;;;6.28;3.67;;;;;;;19.73;100.00;96696.53;5021917;28;20549;-54
2021/08/23 06:12:20;;;;;;;5.90;3.35;;;;;;;20.22;100.00;96692.88;5024547;28;20053;-51
2021/08/23 06:14:48;;;;;;;4.18;3.22;;;;;;;20.36;100.00;96683.03;5024197;28;20068;-49
2021/08/23 06:17:17;;;;;;;3.80;2.90;;;;;;;20.19;100.00;96689.78;5024820;28;20084;-51
2021/08/23 06:19:45;;;;;;;5.82;3.20;;;;;;;19.33;100.00;96693.53;5025223;28;20104;-49
2021/08/23 06:22:13;;;;;;;6.78;3.42;;;;;;;20.08;100.00;96694.66;5025784;28;20076;-46
2021/08/23 06:24:43;;;;;;;7.07;3.45;;;;;;;20.21;100.00;96685.88;5023592;28;20515;-52
2021/08/23 06:27:12;;;;;;;3.78;3.08;;;;;;;20.00;100.00;96689.50;5022736;28;20065;-51
2021/08/23 06:29:40;;;;;;;4.07;2.92;;;;;;;19.95;100.00;96689.25;5022956;28;20408;-51
2021/08/23 06:32:08;;;;;;;5.18;2.95;;;;;;;19.72;100.00;96692.22;5024928;28;20081;-50
2021/08/23 06:34:37;;;;;;;5.70;2.95;;;;;;;20.56;100.00;96693.84;5017307;28;20092;-53
2021/08/23 06:37:05;;;;;;;6.82;3.85;;;;;;;20.26;100.00;96699.47;5021473;28;20073;-50
2021/08/23 06:39:34;;;;;;;6.35;3.33;;;;;;;20.56;100.00;96696.53;5020059;28;20072;-48
2021/08/23 06:42:04;;;;;;;4.03;2.75;;;;;;;21.14;100.00;96693.34;5021127;28;20076;-61
2021/08/23 06:44:32;;;;;;;5.60;3.13;;;;;;;20.75;100.00;96697.59;5023834;28;20464;-49
2021/08/23 06:47:01;;;;;;;5.32;3.03;;;;;;;21.19;100.00;96693.53;5031596;28;20088;-54
2021/08/23 06:49:29;;;;;;;4.18;2.75;;;;;;;20.70;100.00;96692.84;5021332;28;20067;-50
2021/08/23 06:51:58;;;;;;;3.90;2.58;;;;;;;20.09;100.00;96695.50;5024025;28;20480;-51
2021/08/23 06:54:26;;;;;;;5.45;2.60;;;;;;;19.96;100.00;96690.91;5025345;28;20057;-48
2021/08/23 06:56:54;;;;;;;4.97;2.90;;;;;;;20.93;100.00;96694.38;5022752;28;20408;-49
2021/08/23 06:59:27;;;;;;;4.72;2.45;;;;;;;;;;5004198;28;20539;-49
2021/08/23 07:01:55;;;;;;;3.97;2.47;;;;;;;20.58;100.00;96700.69;5001957;28;20269;-57
2021/08/23 07:04:23;;;;;;;5.07;2.95;;;;;;;20.25;100.00;96697.84;5014463;28;20065;-48
2021/08/23 07:06:52;;;;;;;4.90;2.78;;;;;;;19.87;100.00;96702.78;5022949;28;21008;-52
2021/08/23 07:09:20;;;;;;;3.80;2.63;;;;;;;20.17;100.00;96703.38;5025794;28;20468;-55
2021/08/23 07:11:49;;;;;;;6.10;3.08;;;;;;;20.12;100.00;96700.44;5025229;28;20073;-48
2021/08/23 07:14:17;;;;;;;4.25;3.03;;;;;;;20.47;100.00;96698.53;5026021;28;20084;-47
2021/08/23 07:16:47;;;;;;;5.72;2.92;;;;;;;20.27;100.00;96703.00;5018016;28;20428;-51
2021/08/23 07:19:15;;;;;;;4.40;2.78;;;;;;;20.42;100.00;96697.50;5023026;28;20087;-52
2021/08/23 07:21:44;;;;;;;4.55;2.92;;;;;;;20.80;100.00;96703.19;5023792;28;20061;-48
2021/08/23 07:24:12;;;;;;;4.28;2.80;;;;;;;20.69;100.00;96696.56;5019718;28;20077;-51
2021/08/23 07:26:41;;;;;;;6.53;3.20;;;;;;;20.79;100.00;96706.91;5022230;28;20077;-49
2021/08/23 07:29:12;;;;;;;5.82;3.28;;;;;;;21.02;100.00;96698.47;5023194;28;20089;-56
2021/08/23 07:31:41;;;;;;;8.93;3.05;;;;;;;20.74;100.00;96693.28;5021875;28;20065;-54
2021/08/23 07:34:11;;;;;;;6.85;2.78;;;;;;;20.84;100.00;96697.22;5024368;28;20064;-53
2021/08/23 07:36:40;;;;;;;5.85;2.88;;;;;;;21.10;100.00;96690.25;5023432;28;20459;-49
2021/08/23 07:39:08;;;;;;;7.22;3.35;;;;;;;20.86;100.00;96707.75;5023892;28;20060;-46
2021/08/23 07:41:37;;;;;;;5.30;3.05;;;;;;;21.03;100.00;96705.50;5025342;28;20085;-47
2021/08/23 07:44:05;;;;;;;6.93;3.60;;;;;;;21.59;100.00;96701.63;5026487;28;20075;-45
2021/08/23 07:46:34;;;;;;;6.30;3.20;;;;;;;21.78;100.00;96706.13;5023456;28;20072;-51
2021/08/23 07:49:02;;;;;;;7.55;2.85;;;;;;;21.55;100.00;96698.53;5026924;28;20065;-57
2021/08/23 07:51:32;;;;;;;3.88;2.78;;;;;;;21.99;100.00;96692.47;5023486;28;20068;-48
2021/08/23 07:54:01;;;;;;;5.07;3.08;;;;;;;22.15;100.00;96701.13;5023325;28;20072;-53
2021/08/23 07:56:30;;;;;;;4.88;2.83;;;;;;;21.85;100.00;96701.59;5023369;28;20581;-50
2021/08/23 07:58:58;;;;;;;3.63;2.70;;;;;;;22.11;100.00;96706.06;5027818;28;20660;-51
2021/08/23 08:01:28;;;;;;;5.00;3.17;;;;;;;22.22;100.00;96701.91;5021999;28;20073;-46
2021/08/23 08:03:56;;;;;;;4.80;3.08;;;;;;;22.73;100.00;96687.63;5022524;28;20148;-50
2021/08/23 08:06:25;;;;;;;5.00;3.03;;;;;;;22.10;100.00;96695.53;5019358;28;20064;-55
2021/08/23 08:08:54;;;;;;;5.43;2.80;;;;;;;22.69;100.00;96683.72;5024341;28;20064;-58
2021/08/23 08:11:23;;;;;;;4.35;2.88;;;;;;;22.65;100.00;96687.88;5025718;28;20479;-48
2021/08/23 08:13:51;;;;;;;3.88;3.03;;;;;;;22.74;100.00;96692.78;5026181;28;20069;-49
2021/08/23 08:16:20;;;;;;;3.30;2.45;;;;;;;21.90;100.00;96703.66;5022575;28;20555;-54
2021/08/23 08:18:48;;;;;;;4.03;2.10;;;;;;;21.44;100.00;96699.13;5010984;28;20072;-52
2021/08/23 08:21:17;;;;;;;3.22;2.45;;;;;;;22.42;100.00;96697.28;5009757;28;20081;-56
2021/08/23 08:23:45;;;;;;;5.68;2.47;;;;;;;21.55;100.00;96698.53;5033512;28;20491;-50
2021/08/23 08:26:15;;;;;;;3.78;2.53;;;;;;;21.95;100.00;96699.28;5026397;28;20069;-47
2021/08/23 08:28:43;;;;;;;4.55;2.33;;;;;;;21.13;100.00;96697.91;5005509;28;20578;-50
2021/08/23 08:31:12;;;;;;;4.97;2.65;;;;;;;21.26;100.00;96695.19;5023256;28;20061;-48
2021/08/23 08:33:40;;;;;;;4.80;2.10;;;;;;;21.46;100.00;96692.53;5016717;28;20077;-49
2021/08/23 08:36:09;;;;;;;4.50;2.13;;;;;;;21.61;100.00;96697.72;5005400;28;20073;-53
2021/08/23 08:38:37;;;;;;;3.60;2.25;;;;;;;21.05;100.00;96685.47;5001790;28;20086;-53
2021/08/23 08:41:06;;;;;;;3.97;2.28;;;;;;;21.75;100.00;96701.19;5028315;28;20488;-49
2021/08/23 08:43:37;;;;;;;4.40;2.10;;;;;;;21.98;100.00;96695.34;5029010;28;20068;-51
2021/08/23 08:46:06;;;;;;;2.92;1.85;;;;;;;21.40;100.00;96689.84;5024805;28;20080;-54
2021/08/23 08:48:35;;;;;;;6.07;1.70;;;;;;;21.53;100.00;96697.91;5030651;28;20460;-48
2021/08/23 08:51:04;;;;;;;3.40;2.00;;;;;;;21.54;100.00;96688.81;5031007;28;20509;-53
2021/08/23 08:53:37;;;;;;;2.38;1.85;;;;;;;21.21;100.00;96688.81;5027467;28;20085;-47
2021/08/23 08:56:05;;;;;;;4.32;2.38;;;;;;;21.18;100.00;96690.03;5029664;28;20077;-50
2021/08/23 08:58:36;;;;;;;3.30;2.35;;;;;;;22.18;100.00;96692.63;5007945;28;20065;-53
2021/08/23 09:01:06;;;;;;;3.05;2.20;;;;;;;22.13;100.00;96695.13;5018095;28;20056;-49
2021/08/23 09:03:35;;;;;;;3.13;2.25;;;;;;;22.48;100.00;96692.94;5023543;28;20061;-52
2021/08/23 09:06:05;;;;;;;5.82;2.30;;;;;;;21.50;100.00;96693.78;5027796;28;20529;-47
2021/08/23 09:08:34;;;;;;;4.28;2.38;;;;;;;21.54;100.00;96695.03;5020410;28;20079;-50
2021/08/23 09:11:12;;;;;;;2.75;2.25;;;;;;;21.80;100.00;96693.31;5027216;28;20076;-52
2021/08/23 09:13:57;;;;;;;3.92;2.60;;;;;;;22.09;100.00;96688.50;5025083;28;20069;-53
2021/08/23 09:16:27;;;;;;;2.90;2.30;;;;;;;22.11;100.00;96686.44;5024088;28;20061;-50
2021/08/23 09:18:56;;;;;;;3.20;2.40;;;;;;;22.00;100.00;96683.38;5016589;28;20065;-50
2021/08/23 09:21:29;;;;;;;3.45;2.65;;;;;;;22.88;100.00;96682.78;5024529;28;20083;-49
2021/08/23 09:23:58;;;;;;;4.82;2.45;;;;;;;23.24;100.00;96683.19;5022192;28;20073;-54
2021/08/23 09:26:31;;;;;;;2.60;1.90;;;;;;;22.46;100.00;96693.13;5028650;28;20423;-52
2021/08/23 09:29:03;;;;;;;4.15;2.00;;;;;;;22.79;100.00;96685.94;5024172;28;20537;-49
2021/08/23 09:31:33;;;;;;;4.45;1.90;;;;;;;22.88;100.00;96685.47;5022464;28;20068;-48
2021/08/23 09:34:03;;;;;;;2.90;2.08;;;;;;;23.13;100.00;96692.78;5023304;28;21445;-53
2021/08/23 09:36:32;;;;;;;2.83;1.90;;;;;;;22.47;100.00;96673.31;5024240;28;20060;-54
2021/08/23 09:39:03;;;;;;;1.95;1.75;;;;;;;22.61;100.00;96681.28;5021846;28;20073;-53
2021/08/23 09:41:40;;;;;;;3.28;1.90;;;;;;;23.26;100.00;96681.09;5023404;28;20073;-49
2021/08/23 09:44:11;;;;;;;3.60;2.00;;;;;;;23.48;100.00;96676.97;5027218;28;20065;-50
2021/08/23 09:46:42;;;;;;;3.03;1.88;;;;;;;23.23;100.00;96671.59;5022912;28;20072;-47
2021/08/23 09:49:12;;;;;;;3.08;2.05;;;;;;;22.76;100.00;96665.69;5023690;28;20114;-52
2021/08/23 09:51:43;;;;;;;2.88;2.00;;;;;;;23.32;100.00;96666.75;5026829;28;20081;-52
2021/08/23 09:54:12;;;;;;;2.90;1.92;;;;;;;23.45;100.00;96667.47;5027732;28;20332;-52
2021/08/23 09:56:44;;;;;;;3.42;1.90;;;;;;;22.80;100.00;96671.47;5018425;28;20088;-55
2021/08/23 09:59:16;;;;;;;3.90;2.03;;;;;;;21.63;100.00;96676.84;5005482;28;20065;-50
2021/08/23 10:01:45;;;;;;;2.83;1.85;;;;;;;22.43;100.00;96682.00;5029934;28;20151;-48
2021/08/23 10:04:14;;;;;;;6.97;2.28;;;;;;;22.57;100.00;96666.63;5024966;28;20440;-48
2021/08/23 10:06:45;;;;;;;2.92;1.83;;;;;;;23.11;100.00;96668.78;5020952;28;20067;-46
2021/08/23 10:09:18;;;;;;;4.45;1.92;;;;;;;23.16;100.00;96658.19;5025060;28;20069;-47
2021/08/23 10:11:48;;;;;;;3.53;2.00;;;;;;;24.49;100.00;96662.22;5026759;28;20080;-49
2021/08/23 10:14:18;;;;;;;2.88;2.03;;;;;;;24.91;100.00;96662.25;5026349;28;20095;-49
2021/08/23 10:16:46;;;;;;;;;;;;;;;23.30;100.00;96656.22;5026266;28;20061;-49
2021/08/23 10:19:15;;;;;;;2.40;1.73;;;;;;;22.50;100.00;96653.22;5033594;28;19959;-50
2021/08/23 10:21:44;;;;;;;3.67;2.10;;;;;;;21.75;100.00;96672.50;5015744;28;20073;-49
2021/08/23 10:24:16;;;;;;;5.80;2.47;;;;;;;20.92;100.00;96661.38;5011061;28;20069;-50
2021/08/23 10:26:46;;;;;;;3.25;2.33;;;;;;;20.96;100.00;96659.09;5020827;28;20065;-52
2021/08/23 10:29:15;;;;;;;3.65;2.40;;;;;;;21.41;100.00;96668.22;5029996;28;20073;-51
2021/08/23 10:31:46;;;;;;;2.97;2.13;;;;;;;22.05;100.00;96670.13;5025792;28;20428;-46
2021/08/23 10:34:16;;;;;;;3.42;2.20;;;;;;;22.67;100.00;96656.22;5024149;28;20084;-53
2021/08/23 10:36:46;;;;;;;2.80;2.30;;;;;;;22.49;100.00;96656.94;5023662;28;20151;-50
2021/08/23 10:39:21;;;;;;;3.63;2.27;;;;;;;23.03;100.00;96652.91;5027590;28;20056;-51
2021/08/23 10:41:51;;;;;;;2.55;2.20;;;;;;;23.16;100.00;96644.75;5025435;28;20065;-50
2021/08/23 10:44:27;;;;;;;3.47;2.20;;;;;;;22.69;100.00;96648.78;5034160;28;20089;-53
2021/08/23 10:47:08;;;;;;;3.33;2.33;;;;;;;22.64;100.00;96645.91;5006323;28;20084;-54
2021/08/23 10:49:42;;;;;;;3.38;2.42;;;;;;;22.45;100.00;96642.28;5024477;28;20428;-47
2021/08/23 10:52:11;;;;;;;4.82;2.47;;;;;;;22.71;100.00;96633.22;5024626;28;20077;-50
2021/08/23 10:54:41;;;;;;;3.17;2.50;;;;;;;22.78;100.00;96628.66;5026194;28;20058;-49
2021/08/23 10:57:11;;;;;;;4.13;2.47;;;;;;;22.89;100.00;96629.81;5026698;28;20464;-47
2021/08/23 10:59:44;;;;;;;3.08;2.20;;;;;;;23.39;100.00;96627.16;5025043;28;20424;-47
2021/08/23 11:02:15;;;;;;;3.92;2.60;;;;;;;23.08;100.00;96623.47;5026331;28;20445;-52
2021/08/23 11:04:55;;;;;;;4.70;2.67;;;;;;;23.86;100.00;96628.34;5023749;28;20057;-50
2021/08/23 11:07:26;;;;;;;2.63;2.22;;;;;;;24.20;100.00;96626.09;5026421;28;20073;-49
2021/08/23 11:10:04;;;;;;;4.43;2.42;;;;;;;23.72;100.00;96617.97;5025237;28;20049;-49
2021/08/23 11:12:46;;;;;;;4.10;2.50;;;;;;;24.72;100.00;96626.44;5021280;28;20068;-53
2021/08/23 11:15:17;;;;;;;2.78;2.28;;;;;;;25.03;100.00;96619.94;5020838;28;20129;-49
2021/08/23 11:17:49;;;;;;;3.28;2.20;;;;;;;23.97;100.00;96623.25;5022761;28;20515;-51
2021/08/23 11:20:20;;;;;;;2.50;2.10;;;;;;;24.35;100.00;96615.72;5008639;28;20093;-53
2021/08/23 11:22:56;;;;;;;3.05;2.00;;;;;;;24.07;100.00;96621.69;5025649;28;20123;-51
2021/08/23 11:25:32;;;;;;;2.40;2.08;;;;;;;24.29;100.00;96621.19;5027695;28;20092;-51
2021/08/23 11:28:03;;;;;;;3.75;2.17;;;;;;;24.49;99.92;96626.38;5024693;28;20068;-47
2021/08/23 11:30:34;;;;;;;3.10;2.03;;;;;;;24.24;100.00;96616.50;5023469;28;20576;-47
2021/08/23 11:33:06;;;;;;;4.63;2.30;;;;;;;24.30;100.00;96618.28;5026738;28;20061;-48
2021/08/23 11:35:34;;;;;;;3.28;2.35;;;;;;;24.39;100.00;96610.69;5026422;28;20069;-52
2021/08/23 11:38:05;;;;;;;3.13;2.25;;;;;;;24.29;100.00;96605.84;5028174;28;20065;-49